sensor_id;sensor_type;location;lat;lon;timestamp;P1;durP1;ratioP1;P2;durP2;ratioP2
66429;SDS011;53242;51.694;10.006;2023-04-28T00:02:01;8.93;;;2.40;;
66429;SDS011;53242;51.694;10.006;2023-04-28T00:04:24;8.43;;;3.33;;
66429;SDS011;53242;51.694;10.006;2023-04-28T00:06:46;7.53;;;3.00;;
66429;SDS011;53242;51.694;10.006;2023-04-28T00:09:09;7.97;;;3.22;;
66429;SDS011;53242;51.694;10.006;2023-04-28T00:11:32;4.30;;;2.13;;
66429;SDS011;53242;51.694;10.006;2023-04-28T00:13:54;6.95;;;2.90;;
66429;SDS011;53242;51.694;10.006;2023-04-28T00:16:17;7.10;;;2.95;;
66429;SDS011;53242;51.694;10.006;2023-04-28T00:18:39;7.80;;;2.78;;
66429;SDS011;53242;51.694;10.006;2023-04-28T00:21:01;6.68;;;2.88;;
66429;SDS011;53242;51.694;10.006;2023-04-28T00:23:24;8.10;;;2.65;;
66429;SDS011;53242;51.694;10.006;2023-04-28T00:25:50;10.90;;;3.00;;
66429;SDS011;53242;51.694;10.006;2023-04-28T00:28:13;7.35;;;2.05;;
66429;SDS011;53242;51.694;10.006;2023-04-28T00:30:35;8.23;;;2.75;;
66429;SDS011;53242;51.694;10.006;2023-04-28T00:32:58;9.27;;;2.90;;
66429;SDS011;53242;51.694;10.006;2023-04-28T00:35:20;7.85;;;2.72;;
66429;SDS011;53242;51.694;10.006;2023-04-28T00:37:43;7.20;;;3.10;;
66429;SDS011;53242;51.694;10.006;2023-04-28T00:40:05;8.05;;;2.90;;
66429;SDS011;53242;51.694;10.006;2023-04-28T00:42:29;8.20;;;2.88;;
66429;SDS011;53242;51.694;10.006;2023-04-28T00:44:51;8.48;;;3.38;;
66429;SDS011;53242;51.694;10.006;2023-04-28T00:47:14;9.32;;;3.45;;
66429;SDS011;53242;51.694;10.006;2023-04-28T00:49:38;6.57;;;2.88;;
66429;SDS011;53242;51.694;10.006;2023-04-28T00:52:03;5.82;;;2.65;;
66429;SDS011;53242;51.694;10.006;2023-04-28T00:54:27;4.88;;;1.65;;
66429;SDS011;53242;51.694;10.006;2023-04-28T00:56:49;8.80;;;3.40;;
66429;SDS011;53242;51.694;10.006;2023-04-28T00:59:12;5.65;;;2.55;;
66429;SDS011;53242;51.694;10.006;2023-04-28T01:01:35;8.07;;;2.85;;
66429;SDS011;53242;51.694;10.006;2023-04-28T01:03:58;9.05;;;3.00;;
66429;SDS011;53242;51.694;10.006;2023-04-28T01:06:20;7.57;;;2.78;;
66429;SDS011;53242;51.694;10.006;2023-04-28T01:08:47;9.48;;;3.58;;
66429;SDS011;53242;51.694;10.006;2023-04-28T01:11:13;8.75;;;3.05;;
66429;SDS011;53242;51.694;10.006;2023-04-28T01:13:53;9.25;;;3.22;;
66429;SDS011;53242;51.694;10.006;2023-04-28T01:16:16;10.10;;;3.10;;
66429;SDS011;53242;51.694;10.006;2023-04-28T01:18:41;9.00;;;2.95;;
66429;SDS011;53242;51.694;10.006;2023-04-28T01:21:06;7.88;;;1.92;;
66429;SDS011;53242;51.694;10.006;2023-04-28T01:23:28;9.95;;;3.60;;
66429;SDS011;53242;51.694;10.006;2023-04-28T01:25:52;9.35;;;2.80;;
66429;SDS011;53242;51.694;10.006;2023-04-28T01:28:14;7.57;;;2.72;;
66429;SDS011;53242;51.694;10.006;2023-04-28T01:30:37;9.27;;;2.95;;
66429;SDS011;53242;51.694;10.006;2023-04-28T01:33:00;11.55;;;3.13;;
66429;SDS011;53242;51.694;10.006;2023-04-28T01:35:23;7.35;;;2.47;;
66429;SDS011;53242;51.694;10.006;2023-04-28T01:37:45;9.75;;;2.85;;
66429;SDS011;53242;51.694;10.006;2023-04-28T01:40:08;8.15;;;3.00;;
66429;SDS011;53242;51.694;10.006;2023-04-28T01:42:31;9.07;;;2.58;;
66429;SDS011;53242;51.694;10.006;2023-04-28T01:44:57;8.27;;;2.75;;
66429;SDS011;53242;51.694;10.006;2023-04-28T01:47:19;9.00;;;2.83;;
66429;SDS011;53242;51.694;10.006;2023-04-28T01:49:42;13.10;;;3.75;;
66429;SDS011;53242;51.694;10.006;2023-04-28T01:52:04;8.30;;;2.78;;
66429;SDS011;53242;51.694;10.006;2023-04-28T01:54:27;7.30;;;2.78;;
66429;SDS011;53242;51.694;10.006;2023-04-28T01:56:50;8.55;;;2.90;;
66429;SDS011;53242;51.694;10.006;2023-04-28T01:59:14;10.25;;;3.13;;
66429;SDS011;53242;51.694;10.006;2023-04-28T02:01:37;9.60;;;2.83;;
66429;SDS011;53242;51.694;10.006;2023-04-28T02:03:59;6.88;;;2.42;;
66429;SDS011;53242;51.694;10.006;2023-04-28T02:06:22;9.75;;;3.42;;
66429;SDS011;53242;51.694;10.006;2023-04-28T02:08:44;10.98;;;3.45;;
66429;SDS011;53242;51.694;10.006;2023-04-28T02:11:08;7.85;;;2.80;;
66429;SDS011;53242;51.694;10.006;2023-04-28T02:13:31;8.90;;;3.17;;
66429;SDS011;53242;51.694;10.006;2023-04-28T02:15:53;8.23;;;3.65;;
66429;SDS011;53242;51.694;10.006;2023-04-28T02:18:16;8.07;;;3.03;;
66429;SDS011;53242;51.694;10.006;2023-04-28T02:20:39;7.50;;;2.72;;
66429;SDS011;53242;51.694;10.006;2023-04-28T02:23:03;6.68;;;2.47;;
66429;SDS011;53242;51.694;10.006;2023-04-28T02:27:50;12.17;;;3.23;;
66429;SDS011;53242;51.694;10.006;2023-04-28T02:30:13;11.38;;;3.40;;
66429;SDS011;53242;51.694;10.006;2023-04-28T02:32:35;7.82;;;3.17;;
66429;SDS011;53242;51.694;10.006;2023-04-28T02:34:57;8.13;;;2.72;;
66429;SDS011;53242;51.694;10.006;2023-04-28T02:37:20;10.13;;;3.75;;
66429;SDS011;53242;51.694;10.006;2023-04-28T02:39:44;13.13;;;3.50;;
66429;SDS011;53242;51.694;10.006;2023-04-28T02:42:07;11.20;;;3.20;;
66429;SDS011;53242;51.694;10.006;2023-04-28T02:44:30;10.57;;;3.88;;
66429;SDS011;53242;51.694;10.006;2023-04-28T02:46:52;9.23;;;3.22;;
66429;SDS011;53242;51.694;10.006;2023-04-28T02:49:15;9.18;;;3.53;;
66429;SDS011;53242;51.694;10.006;2023-04-28T02:51:38;10.23;;;3.60;;
66429;SDS011;53242;51.694;10.006;2023-04-28T02:54:01;9.05;;;3.55;;
66429;SDS011;53242;51.694;10.006;2023-04-28T02:56:23;9.10;;;3.47;;
66429;SDS011;53242;51.694;10.006;2023-04-28T02:58:46;10.70;;;3.03;;
66429;SDS011;53242;51.694;10.006;2023-04-28T03:01:08;7.78;;;3.20;;
66429;SDS011;53242;51.694;10.006;2023-04-28T03:03:31;9.15;;;3.53;;
66429;SDS011;53242;51.694;10.006;2023-04-28T03:05:53;11.88;;;4.03;;
66429;SDS011;53242;51.694;10.006;2023-04-28T03:10:41;9.80;;;3.80;;
66429;SDS011;53242;51.694;10.006;2023-04-28T03:13:04;8.48;;;3.72;;
66429;SDS011;53242;51.694;10.006;2023-04-28T03:15:27;6.82;;;2.67;;
66429;SDS011;53242;51.694;10.006;2023-04-28T03:17:49;11.38;;;3.78;;
66429;SDS011;53242;51.694;10.006;2023-04-28T03:20:12;11.43;;;4.07;;
66429;SDS011;53242;51.694;10.006;2023-04-28T03:22:35;11.68;;;4.30;;
66429;SDS011;53242;51.694;10.006;2023-04-28T03:24:57;12.35;;;3.63;;
66429;SDS011;53242;51.694;10.006;2023-04-28T03:27:21;12.05;;;4.28;;
66429;SDS011;53242;51.694;10.006;2023-04-28T03:29:44;10.52;;;3.70;;
66429;SDS011;53242;51.694;10.006;2023-04-28T03:32:07;9.88;;;4.05;;
66429;SDS011;53242;51.694;10.006;2023-04-28T03:34:29;10.85;;;4.40;;
66429;SDS011;53242;51.694;10.006;2023-04-28T03:36:52;14.48;;;3.85;;
66429;SDS011;53242;51.694;10.006;2023-04-28T03:39:20;12.15;;;4.53;;
66429;SDS011;53242;51.694;10.006;2023-04-28T03:41:43;9.88;;;3.85;;
66429;SDS011;53242;51.694;10.006;2023-04-28T03:44:31;10.10;;;3.70;;
66429;SDS011;53242;51.694;10.006;2023-04-28T03:46:54;9.82;;;3.88;;
66429;SDS011;53242;51.694;10.006;2023-04-28T03:49:16;12.80;;;4.47;;
66429;SDS011;53242;51.694;10.006;2023-04-28T03:51:39;10.25;;;4.05;;
66429;SDS011;53242;51.694;10.006;2023-04-28T03:54:02;9.05;;;3.40;;
66429;SDS011;53242;51.694;10.006;2023-04-28T03:56:24;14.02;;;3.40;;
66429;SDS011;53242;51.694;10.006;2023-04-28T03:58:47;12.23;;;4.07;;
66429;SDS011;53242;51.694;10.006;2023-04-28T04:01:09;10.43;;;3.58;;
66429;SDS011;53242;51.694;10.006;2023-04-28T04:03:32;12.90;;;4.82;;
66429;SDS011;53242;51.694;10.006;2023-04-28T04:05:55;11.93;;;4.38;;
66429;SDS011;53242;51.694;10.006;2023-04-28T04:08:18;12.07;;;4.13;;
66429;SDS011;53242;51.694;10.006;2023-04-28T04:10:41;11.90;;;4.43;;
66429;SDS011;53242;51.694;10.006;2023-04-28T04:13:03;9.43;;;3.15;;
66429;SDS011;53242;51.694;10.006;2023-04-28T04:15:25;10.63;;;3.55;;
66429;SDS011;53242;51.694;10.006;2023-04-28T04:17:48;10.43;;;4.45;;
66429;SDS011;53242;51.694;10.006;2023-04-28T04:20:10;10.73;;;4.35;;
66429;SDS011;53242;51.694;10.006;2023-04-28T04:22:33;9.60;;;3.78;;
66429;SDS011;53242;51.694;10.006;2023-04-28T04:24:55;14.60;;;4.43;;
66429;SDS011;53242;51.694;10.006;2023-04-28T04:27:18;16.40;;;5.20;;
66429;SDS011;53242;51.694;10.006;2023-04-28T04:29:40;11.05;;;4.60;;
66429;SDS011;53242;51.694;10.006;2023-04-28T04:32:07;12.43;;;4.20;;
66429;SDS011;53242;51.694;10.006;2023-04-28T04:34:30;12.93;;;4.88;;
66429;SDS011;53242;51.694;10.006;2023-04-28T04:36:53;15.32;;;5.10;;
66429;SDS011;53242;51.694;10.006;2023-04-28T04:39:15;11.90;;;4.35;;
66429;SDS011;53242;51.694;10.006;2023-04-28T04:41:38;9.27;;;3.72;;
66429;SDS011;53242;51.694;10.006;2023-04-28T04:44:25;11.45;;;4.65;;
66429;SDS011;53242;51.694;10.006;2023-04-28T04:46:49;10.23;;;4.30;;
66429;SDS011;53242;51.694;10.006;2023-04-28T04:49:13;12.50;;;4.93;;
66429;SDS011;53242;51.694;10.006;2023-04-28T04:51:36;12.27;;;4.90;;
66429;SDS011;53242;51.694;10.006;2023-04-28T04:53:59;11.93;;;4.78;;
66429;SDS011;53242;51.694;10.006;2023-04-28T04:56:21;8.35;;;2.53;;
66429;SDS011;53242;51.694;10.006;2023-04-28T04:58:44;14.30;;;5.15;;
66429;SDS011;53242;51.694;10.006;2023-04-28T05:01:21;12.43;;;4.80;;
66429;SDS011;53242;51.694;10.006;2023-04-28T05:03:43;14.38;;;4.90;;
66429;SDS011;53242;51.694;10.006;2023-04-28T05:06:05;10.30;;;3.85;;
66429;SDS011;53242;51.694;10.006;2023-04-28T05:08:38;13.85;;;5.20;;
66429;SDS011;53242;51.694;10.006;2023-04-28T05:11:01;15.38;;;5.32;;
66429;SDS011;53242;51.694;10.006;2023-04-28T05:13:24;11.38;;;4.57;;
66429;SDS011;53242;51.694;10.006;2023-04-28T05:15:53;12.60;;;4.50;;
66429;SDS011;53242;51.694;10.006;2023-04-28T05:18:33;16.50;;;5.38;;
66429;SDS011;53242;51.694;10.006;2023-04-28T05:20:56;13.43;;;5.30;;
66429;SDS011;53242;51.694;10.006;2023-04-28T05:23:18;13.23;;;5.13;;
66429;SDS011;53242;51.694;10.006;2023-04-28T05:25:41;9.20;;;3.67;;
66429;SDS011;53242;51.694;10.006;2023-04-28T05:28:04;11.20;;;4.22;;
66429;SDS011;53242;51.694;10.006;2023-04-28T05:35:14;12.63;;;3.97;;
66429;SDS011;53242;51.694;10.006;2023-04-28T05:37:37;13.65;;;4.70;;
66429;SDS011;53242;51.694;10.006;2023-04-28T05:40:00;11.10;;;4.63;;
66429;SDS011;53242;51.694;10.006;2023-04-28T05:42:22;11.43;;;4.88;;
66429;SDS011;53242;51.694;10.006;2023-04-28T05:44:45;12.00;;;4.93;;
66429;SDS011;53242;51.694;10.006;2023-04-28T05:47:07;16.10;;;5.13;;
66429;SDS011;53242;51.694;10.006;2023-04-28T05:49:30;11.18;;;4.47;;
66429;SDS011;53242;51.694;10.006;2023-04-28T05:51:52;11.80;;;4.70;;
66429;SDS011;53242;51.694;10.006;2023-04-28T05:54:14;16.63;;;5.93;;
66429;SDS011;53242;51.694;10.006;2023-04-28T05:56:41;13.35;;;5.05;;
66429;SDS011;53242;51.694;10.006;2023-04-28T05:59:04;13.98;;;5.47;;
66429;SDS011;53242;51.694;10.006;2023-04-28T06:01:27;12.90;;;5.53;;
66429;SDS011;53242;51.694;10.006;2023-04-28T06:03:49;14.00;;;4.93;;
66429;SDS011;53242;51.694;10.006;2023-04-28T06:06:12;11.88;;;5.20;;
66429;SDS011;53242;51.694;10.006;2023-04-28T06:08:34;13.98;;;5.13;;
66429;SDS011;53242;51.694;10.006;2023-04-28T06:10:59;13.45;;;4.90;;
66429;SDS011;53242;51.694;10.006;2023-04-28T06:13:22;18.70;;;6.05;;
66429;SDS011;53242;51.694;10.006;2023-04-28T06:15:44;14.02;;;5.47;;
66429;SDS011;53242;51.694;10.006;2023-04-28T06:18:06;12.77;;;5.22;;
66429;SDS011;53242;51.694;10.006;2023-04-28T06:20:30;14.77;;;5.93;;
66429;SDS011;53242;51.694;10.006;2023-04-28T06:22:53;14.88;;;4.93;;
66429;SDS011;53242;51.694;10.006;2023-04-28T06:25:15;20.30;;;4.55;;
66429;SDS011;53242;51.694;10.006;2023-04-28T06:27:40;12.20;;;5.43;;
66429;SDS011;53242;51.694;10.006;2023-04-28T06:30:03;11.90;;;4.30;;
66429;SDS011;53242;51.694;10.006;2023-04-28T06:32:25;14.93;;;5.70;;
66429;SDS011;53242;51.694;10.006;2023-04-28T06:34:48;17.08;;;6.47;;
66429;SDS011;53242;51.694;10.006;2023-04-28T06:37:10;14.15;;;5.65;;
66429;SDS011;53242;51.694;10.006;2023-04-28T06:39:33;13.77;;;5.47;;
66429;SDS011;53242;51.694;10.006;2023-04-28T06:41:55;15.20;;;4.53;;
66429;SDS011;53242;51.694;10.006;2023-04-28T06:44:21;10.23;;;4.72;;
66429;SDS011;53242;51.694;10.006;2023-04-28T06:46:44;17.40;;;6.32;;
66429;SDS011;53242;51.694;10.006;2023-04-28T06:49:06;12.88;;;5.78;;
66429;SDS011;53242;51.694;10.006;2023-04-28T06:51:30;15.48;;;6.50;;
66429;SDS011;53242;51.694;10.006;2023-04-28T06:53:54;17.85;;;6.65;;
66429;SDS011;53242;51.694;10.006;2023-04-28T06:56:16;17.92;;;6.28;;
66429;SDS011;53242;51.694;10.006;2023-04-28T06:58:38;14.02;;;4.97;;
66429;SDS011;53242;51.694;10.006;2023-04-28T07:01:01;13.10;;;5.30;;
66429;SDS011;53242;51.694;10.006;2023-04-28T07:03:25;12.70;;;4.38;;
66429;SDS011;53242;51.694;10.006;2023-04-28T07:05:48;17.67;;;6.03;;
66429;SDS011;53242;51.694;10.006;2023-04-28T07:08:10;16.63;;;6.45;;
66429;SDS011;53242;51.694;10.006;2023-04-28T07:10:33;17.27;;;5.85;;
66429;SDS011;53242;51.694;10.006;2023-04-28T07:12:55;16.17;;;5.13;;
66429;SDS011;53242;51.694;10.006;2023-04-28T07:15:18;17.13;;;6.32;;
66429;SDS011;53242;51.694;10.006;2023-04-28T07:17:40;13.98;;;6.03;;
66429;SDS011;53242;51.694;10.006;2023-04-28T07:20:03;13.38;;;4.93;;
66429;SDS011;53242;51.694;10.006;2023-04-28T07:22:26;16.85;;;6.45;;
66429;SDS011;53242;51.694;10.006;2023-04-28T07:24:48;16.60;;;6.63;;
66429;SDS011;53242;51.694;10.006;2023-04-28T07:27:11;15.98;;;6.32;;
66429;SDS011;53242;51.694;10.006;2023-04-28T07:29:33;15.10;;;6.22;;
66429;SDS011;53242;51.694;10.006;2023-04-28T07:31:56;15.32;;;6.22;;
66429;SDS011;53242;51.694;10.006;2023-04-28T07:34:18;20.42;;;6.40;;
66429;SDS011;53242;51.694;10.006;2023-04-28T07:36:41;17.33;;;5.85;;
66429;SDS011;53242;51.694;10.006;2023-04-28T07:39:04;14.57;;;6.00;;
66429;SDS011;53242;51.694;10.006;2023-04-28T07:41:26;16.42;;;5.82;;
66429;SDS011;53242;51.694;10.006;2023-04-28T07:43:49;15.43;;;6.57;;
66429;SDS011;53242;51.694;10.006;2023-04-28T07:46:12;16.27;;;6.32;;
66429;SDS011;53242;51.694;10.006;2023-04-28T07:48:34;15.18;;;6.90;;
66429;SDS011;53242;51.694;10.006;2023-04-28T07:50:57;17.55;;;5.95;;
66429;SDS011;53242;51.694;10.006;2023-04-28T07:53:19;16.60;;;6.65;;
66429;SDS011;53242;51.694;10.006;2023-04-28T07:55:42;20.45;;;6.72;;
66429;SDS011;53242;51.694;10.006;2023-04-28T07:58:05;18.20;;;6.95;;
66429;SDS011;53242;51.694;10.006;2023-04-28T08:00:28;14.82;;;6.38;;
66429;SDS011;53242;51.694;10.006;2023-04-28T08:02:50;16.73;;;6.65;;
66429;SDS011;53242;51.694;10.006;2023-04-28T08:05:12;17.15;;;6.60;;
66429;SDS011;53242;51.694;10.006;2023-04-28T08:07:35;15.82;;;6.65;;
66429;SDS011;53242;51.694;10.006;2023-04-28T08:09:58;13.35;;;5.55;;
66429;SDS011;53242;51.694;10.006;2023-04-28T08:12:20;17.20;;;6.03;;
66429;SDS011;53242;51.694;10.006;2023-04-28T08:14:43;21.88;;;7.57;;
66429;SDS011;53242;51.694;10.006;2023-04-28T08:17:06;16.75;;;6.80;;
66429;SDS011;53242;51.694;10.006;2023-04-28T08:19:29;13.80;;;5.00;;
66429;SDS011;53242;51.694;10.006;2023-04-28T08:21:51;17.05;;;6.72;;
66429;SDS011;53242;51.694;10.006;2023-04-28T08:24:14;14.00;;;5.65;;
66429;SDS011;53242;51.694;10.006;2023-04-28T08:26:36;17.65;;;6.72;;
66429;SDS011;53242;51.694;10.006;2023-04-28T08:28:59;14.65;;;6.10;;
66429;SDS011;53242;51.694;10.006;2023-04-28T08:31:21;17.70;;;6.88;;
66429;SDS011;53242;51.694;10.006;2023-04-28T08:33:44;10.07;;;4.10;;
66429;SDS011;53242;51.694;10.006;2023-04-28T08:36:09;17.20;;;7.15;;
66429;SDS011;53242;51.694;10.006;2023-04-28T08:38:35;18.23;;;7.65;;
66429;SDS011;53242;51.694;10.006;2023-04-28T08:40:58;15.43;;;6.65;;
66429;SDS011;53242;51.694;10.006;2023-04-28T08:43:21;19.00;;;7.32;;
66429;SDS011;53242;51.694;10.006;2023-04-28T08:45:43;17.80;;;6.95;;
66429;SDS011;53242;51.694;10.006;2023-04-28T08:48:08;19.02;;;7.70;;
66429;SDS011;53242;51.694;10.006;2023-04-28T08:50:41;16.88;;;7.55;;
66429;SDS011;53242;51.694;10.006;2023-04-28T08:53:09;17.38;;;7.38;;
66429;SDS011;53242;51.694;10.006;2023-04-28T08:55:34;18.48;;;7.55;;
66429;SDS011;53242;51.694;10.006;2023-04-28T08:57:57;20.63;;;7.20;;
66429;SDS011;53242;51.694;10.006;2023-04-28T09:00:20;14.00;;;5.65;;
66429;SDS011;53242;51.694;10.006;2023-04-28T09:02:42;14.55;;;5.97;;
66429;SDS011;53242;51.694;10.006;2023-04-28T09:05:11;17.95;;;8.65;;
66429;SDS011;53242;51.694;10.006;2023-04-28T09:07:34;17.40;;;6.72;;
66429;SDS011;53242;51.694;10.006;2023-04-28T09:10:14;20.65;;;7.10;;
66429;SDS011;53242;51.694;10.006;2023-04-28T09:12:44;17.08;;;7.03;;
66429;SDS011;53242;51.694;10.006;2023-04-28T09:15:07;17.23;;;7.22;;
66429;SDS011;53242;51.694;10.006;2023-04-28T09:17:30;15.95;;;6.38;;
66429;SDS011;53242;51.694;10.006;2023-04-28T09:19:53;20.45;;;7.80;;
66429;SDS011;53242;51.694;10.006;2023-04-28T09:22:15;16.58;;;7.47;;
66429;SDS011;53242;51.694;10.006;2023-04-28T09:24:38;18.02;;;7.20;;
66429;SDS011;53242;51.694;10.006;2023-04-28T09:27:02;17.75;;;7.63;;
66429;SDS011;53242;51.694;10.006;2023-04-28T09:29:25;18.05;;;7.47;;
66429;SDS011;53242;51.694;10.006;2023-04-28T09:31:48;20.23;;;8.15;;
66429;SDS011;53242;51.694;10.006;2023-04-28T09:34:10;19.58;;;7.20;;
66429;SDS011;53242;51.694;10.006;2023-04-28T09:36:33;17.38;;;6.80;;
66429;SDS011;53242;51.694;10.006;2023-04-28T09:38:56;17.38;;;7.05;;
66429;SDS011;53242;51.694;10.006;2023-04-28T09:41:20;19.45;;;7.60;;
66429;SDS011;53242;51.694;10.006;2023-04-28T09:43:42;22.40;;;8.60;;
66429;SDS011;53242;51.694;10.006;2023-04-28T09:46:04;18.02;;;6.13;;
66429;SDS011;53242;51.694;10.006;2023-04-28T09:50:56;17.27;;;7.88;;
66429;SDS011;53242;51.694;10.006;2023-04-28T09:53:21;16.45;;;7.97;;
66429;SDS011;53242;51.694;10.006;2023-04-28T09:55:47;16.60;;;7.18;;
66429;SDS011;53242;51.694;10.006;2023-04-28T09:58:12;18.80;;;8.00;;
66429;SDS011;53242;51.694;10.006;2023-04-28T10:00:36;17.13;;;8.00;;
66429;SDS011;53242;51.694;10.006;2023-04-28T10:03:00;19.85;;;8.60;;
66429;SDS011;53242;51.694;10.006;2023-04-28T10:05:22;17.27;;;7.35;;
66429;SDS011;53242;51.694;10.006;2023-04-28T10:07:45;15.68;;;6.97;;
66429;SDS011;53242;51.694;10.006;2023-04-28T10:10:08;18.13;;;7.32;;
66429;SDS011;53242;51.694;10.006;2023-04-28T10:12:30;17.88;;;7.28;;
66429;SDS011;53242;51.694;10.006;2023-04-28T10:14:54;18.45;;;8.15;;
66429;SDS011;53242;51.694;10.006;2023-04-28T10:17:18;18.60;;;7.82;;
66429;SDS011;53242;51.694;10.006;2023-04-28T10:19:41;19.92;;;8.25;;
66429;SDS011;53242;51.694;10.006;2023-04-28T10:27:45;15.93;;;8.07;;
66429;SDS011;53242;51.694;10.006;2023-04-28T10:30:15;21.05;;;8.57;;
66429;SDS011;53242;51.694;10.006;2023-04-28T10:32:42;18.85;;;8.95;;
66429;SDS011;53242;51.694;10.006;2023-04-28T10:40:34;22.52;;;9.23;;
66429;SDS011;53242;51.694;10.006;2023-04-28T10:42:57;19.00;;;9.05;;
66429;SDS011;53242;51.694;10.006;2023-04-28T10:48:10;21.17;;;8.38;;
66429;SDS011;53242;51.694;10.006;2023-04-28T10:50:32;21.33;;;8.90;;
66429;SDS011;53242;51.694;10.006;2023-04-28T10:52:58;19.98;;;8.85;;
66429;SDS011;53242;51.694;10.006;2023-04-28T10:55:28;23.23;;;9.38;;
66429;SDS011;53242;51.694;10.006;2023-04-28T11:00:38;23.27;;;9.32;;
66429;SDS011;53242;51.694;10.006;2023-04-28T11:03:01;22.33;;;8.73;;
66429;SDS011;53242;51.694;10.006;2023-04-28T11:05:23;22.65;;;9.50;;
66429;SDS011;53242;51.694;10.006;2023-04-28T11:13:35;19.63;;;8.98;;
66429;SDS011;53242;51.694;10.006;2023-04-28T11:16:02;19.42;;;7.68;;
66429;SDS011;53242;51.694;10.006;2023-04-28T11:18:25;19.27;;;8.52;;
66429;SDS011;53242;51.694;10.006;2023-04-28T11:20:49;21.33;;;9.38;;
66429;SDS011;53242;51.694;10.006;2023-04-28T11:23:18;22.15;;;10.07;;
66429;SDS011;53242;51.694;10.006;2023-04-28T11:25:53;22.05;;;9.38;;
66429;SDS011;53242;51.694;10.006;2023-04-28T11:28:16;20.38;;;9.27;;
66429;SDS011;53242;51.694;10.006;2023-04-28T11:30:39;22.70;;;9.68;;
66429;SDS011;53242;51.694;10.006;2023-04-28T11:33:01;18.95;;;8.85;;
66429;SDS011;53242;51.694;10.006;2023-04-28T11:35:24;20.70;;;9.30;;
66429;SDS011;53242;51.694;10.006;2023-04-28T11:37:59;22.15;;;8.70;;
66429;SDS011;53242;51.694;10.006;2023-04-28T11:40:25;20.75;;;9.35;;
66429;SDS011;53242;51.694;10.006;2023-04-28T11:42:47;19.52;;;9.35;;
66429;SDS011;53242;51.694;10.006;2023-04-28T11:45:10;24.45;;;10.00;;
66429;SDS011;53242;51.694;10.006;2023-04-28T11:47:33;21.17;;;10.02;;
66429;SDS011;53242;51.694;10.006;2023-04-28T11:49:56;20.02;;;8.88;;
66429;SDS011;53242;51.694;10.006;2023-04-28T11:52:19;20.30;;;9.43;;
66429;SDS011;53242;51.694;10.006;2023-04-28T11:54:42;20.75;;;8.38;;
66429;SDS011;53242;51.694;10.006;2023-04-28T11:57:04;20.83;;;9.20;;
66429;SDS011;53242;51.694;10.006;2023-04-28T11:59:28;19.00;;;8.90;;
66429;SDS011;53242;51.694;10.006;2023-04-28T12:01:56;15.63;;;6.03;;
66429;SDS011;53242;51.694;10.006;2023-04-28T12:06:57;23.50;;;9.88;;
66429;SDS011;53242;51.694;10.006;2023-04-28T12:09:20;19.55;;;8.93;;
66429;SDS011;53242;51.694;10.006;2023-04-28T12:11:52;19.95;;;9.50;;
66429;SDS011;53242;51.694;10.006;2023-04-28T12:14:18;19.35;;;9.60;;
66429;SDS011;53242;51.694;10.006;2023-04-28T12:16:42;21.02;;;9.00;;
66429;SDS011;53242;51.694;10.006;2023-04-28T12:19:05;21.48;;;9.18;;
66429;SDS011;53242;51.694;10.006;2023-04-28T12:21:31;20.25;;;9.52;;
66429;SDS011;53242;51.694;10.006;2023-04-28T12:23:54;19.73;;;9.25;;
66429;SDS011;53242;51.694;10.006;2023-04-28T12:26:23;21.20;;;9.00;;
66429;SDS011;53242;51.694;10.006;2023-04-28T12:28:46;21.35;;;9.15;;
66429;SDS011;53242;51.694;10.006;2023-04-28T12:31:09;20.88;;;8.68;;
66429;SDS011;53242;51.694;10.006;2023-04-28T12:33:32;21.52;;;8.63;;
66429;SDS011;53242;51.694;10.006;2023-04-28T12:36:00;19.52;;;8.25;;
66429;SDS011;53242;51.694;10.006;2023-04-28T12:38:23;20.38;;;8.20;;
66429;SDS011;53242;51.694;10.006;2023-04-28T12:40:45;22.48;;;9.65;;
66429;SDS011;53242;51.694;10.006;2023-04-28T12:43:08;19.15;;;8.50;;
66429;SDS011;53242;51.694;10.006;2023-04-28T12:45:30;20.58;;;9.07;;
66429;SDS011;53242;51.694;10.006;2023-04-28T12:47:53;21.02;;;9.02;;
66429;SDS011;53242;51.694;10.006;2023-04-28T12:50:17;24.63;;;10.35;;
66429;SDS011;53242;51.694;10.006;2023-04-28T12:52:40;21.85;;;9.13;;
66429;SDS011;53242;51.694;10.006;2023-04-28T12:55:03;17.27;;;8.63;;
66429;SDS011;53242;51.694;10.006;2023-04-28T12:57:25;23.50;;;9.85;;
66429;SDS011;53242;51.694;10.006;2023-04-28T12:59:48;19.38;;;9.07;;
66429;SDS011;53242;51.694;10.006;2023-04-28T13:02:11;35.38;;;14.30;;
66429;SDS011;53242;51.694;10.006;2023-04-28T13:04:35;21.17;;;9.98;;
66429;SDS011;53242;51.694;10.006;2023-04-28T13:06:58;24.95;;;10.23;;
66429;SDS011;53242;51.694;10.006;2023-04-28T13:09:20;20.02;;;8.82;;
66429;SDS011;53242;51.694;10.006;2023-04-28T13:11:43;19.60;;;8.68;;
66429;SDS011;53242;51.694;10.006;2023-04-28T13:14:05;20.73;;;8.50;;
66429;SDS011;53242;51.694;10.006;2023-04-28T13:16:28;17.45;;;7.97;;
66429;SDS011;53242;51.694;10.006;2023-04-28T13:18:51;20.90;;;9.07;;
66429;SDS011;53242;51.694;10.006;2023-04-28T13:21:13;20.05;;;9.75;;
66429;SDS011;53242;51.694;10.006;2023-04-28T13:23:36;18.63;;;8.60;;
66429;SDS011;53242;51.694;10.006;2023-04-28T13:25:58;17.77;;;7.95;;
66429;SDS011;53242;51.694;10.006;2023-04-28T13:28:21;20.92;;;9.57;;
66429;SDS011;53242;51.694;10.006;2023-04-28T13:30:43;21.30;;;10.00;;
66429;SDS011;53242;51.694;10.006;2023-04-28T13:33:06;16.38;;;7.40;;
66429;SDS011;53242;51.694;10.006;2023-04-28T13:35:28;19.13;;;9.25;;
66429;SDS011;53242;51.694;10.006;2023-04-28T13:37:51;19.70;;;9.50;;
66429;SDS011;53242;51.694;10.006;2023-04-28T13:40:17;19.33;;;10.13;;
66429;SDS011;53242;51.694;10.006;2023-04-28T13:42:40;19.25;;;8.48;;
66429;SDS011;53242;51.694;10.006;2023-04-28T13:45:02;20.20;;;9.57;;
66429;SDS011;53242;51.694;10.006;2023-04-28T13:47:25;19.40;;;9.38;;
66429;SDS011;53242;51.694;10.006;2023-04-28T13:49:48;20.13;;;9.98;;
66429;SDS011;53242;51.694;10.006;2023-04-28T13:52:11;18.60;;;9.13;;
66429;SDS011;53242;51.694;10.006;2023-04-28T13:54:34;24.50;;;9.68;;
66429;SDS011;53242;51.694;10.006;2023-04-28T13:56:57;21.83;;;9.15;;
66429;SDS011;53242;51.694;10.006;2023-04-28T13:59:19;22.83;;;10.77;;
66429;SDS011;53242;51.694;10.006;2023-04-28T14:01:42;19.88;;;9.85;;
66429;SDS011;53242;51.694;10.006;2023-04-28T14:04:04;20.52;;;8.98;;
66429;SDS011;53242;51.694;10.006;2023-04-28T14:06:27;23.55;;;10.32;;
66429;SDS011;53242;51.694;10.006;2023-04-28T14:08:49;20.48;;;10.30;;
66429;SDS011;53242;51.694;10.006;2023-04-28T14:11:12;21.48;;;9.95;;
66429;SDS011;53242;51.694;10.006;2023-04-28T14:13:35;21.65;;;10.50;;
66429;SDS011;53242;51.694;10.006;2023-04-28T14:15:57;21.00;;;9.48;;
66429;SDS011;53242;51.694;10.006;2023-04-28T14:18:19;23.00;;;10.18;;
66429;SDS011;53242;51.694;10.006;2023-04-28T14:20:42;19.63;;;9.80;;
66429;SDS011;53242;51.694;10.006;2023-04-28T14:23:04;17.65;;;7.45;;
66429;SDS011;53242;51.694;10.006;2023-04-28T14:25:27;13.88;;;6.57;;
66429;SDS011;53242;51.694;10.006;2023-04-28T14:27:50;22.77;;;10.18;;
66429;SDS011;53242;51.694;10.006;2023-04-28T14:30:12;21.98;;;9.88;;
66429;SDS011;53242;51.694;10.006;2023-04-28T14:32:35;23.02;;;9.50;;
66429;SDS011;53242;51.694;10.006;2023-04-28T14:34:59;21.40;;;10.07;;
66429;SDS011;53242;51.694;10.006;2023-04-28T14:37:22;20.80;;;10.15;;
66429;SDS011;53242;51.694;10.006;2023-04-28T14:39:45;19.27;;;7.88;;